createdAt,value
2022-12-05T00:00:19.852Z,24.33
2022-12-05T00:02:22.116Z,24.40
2022-12-05T00:04:24.686Z,26.03
2022-12-05T00:06:29.743Z,24.30
2022-12-05T00:08:32.096Z,25.43
2022-12-05T00:10:37.333Z,22.73
2022-12-05T00:12:42.022Z,23.80
2022-12-05T00:14:44.445Z,22.73
2022-12-05T00:16:46.895Z,24.00
2022-12-05T00:18:49.575Z,21.57
2022-12-05T00:20:51.996Z,25.40
2022-12-05T00:22:57.191Z,22.20
2022-12-05T00:24:59.498Z,23.50
2022-12-05T00:27:02.115Z,24.80
2022-12-05T00:29:07.341Z,21.63
2022-12-05T00:31:12.494Z,22.63
2022-12-05T00:33:14.492Z,21.33
2022-12-05T00:35:16.733Z,20.53
2022-12-05T00:37:19.072Z,21.10
2022-12-05T00:39:21.472Z,21.10
2022-12-05T00:41:26.427Z,21.53
2022-12-05T00:43:28.540Z,20.90
2022-12-05T00:45:34.085Z,21.33
2022-12-05T00:47:39.253Z,23.77
2022-12-05T00:49:41.563Z,23.90
2022-12-05T00:51:44.259Z,21.70
2022-12-05T00:53:47.481Z,22.10
2022-12-05T00:55:49.716Z,24.77
2022-12-05T00:57:52.424Z,25.93
2022-12-05T00:59:55.256Z,26.80
2022-12-05T01:01:57.797Z,27.30
2022-12-05T01:04:05.299Z,27.33
2022-12-05T01:06:08.165Z,27.70
2022-12-05T01:08:10.668Z,26.93
2022-12-05T01:10:12.853Z,31.93
2022-12-05T01:12:14.995Z,30.67
2022-12-05T01:14:21.528Z,29.90
2022-12-05T01:16:30.485Z,23.87
2022-12-05T01:18:33.088Z,22.40
2022-12-05T01:20:35.257Z,22.30
2022-12-05T01:22:37.526Z,23.17
2022-12-05T01:24:39.867Z,24.60
2022-12-05T01:26:46.060Z,24.90
2022-12-05T01:28:49.165Z,24.20
2022-12-05T01:30:53.886Z,23.07
2022-12-05T01:32:56.319Z,28.17
2022-12-05T01:34:58.553Z,22.67
2022-12-05T01:37:00.524Z,18.37
2022-12-05T01:39:03.300Z,15.50
2022-12-05T01:41:07.474Z,16.50
2022-12-05T01:43:20.078Z,15.97
2022-12-05T01:45:40.016Z,17.17
2022-12-05T01:47:42.948Z,15.40
2022-12-05T01:49:47.431Z,15.20
2022-12-05T01:52:05.829Z,15.00
2022-12-05T01:54:09.472Z,17.23
2022-12-05T01:56:12.908Z,20.37
2022-12-05T01:58:16.931Z,21.73
2022-12-05T02:00:20.953Z,42.27
2022-12-05T02:02:24.055Z,88.20
2022-12-05T02:04:27.880Z,92.37
2022-12-05T02:06:30.328Z,120.00
2022-12-05T02:08:33.315Z,172.90
2022-12-05T02:10:42.141Z,129.87
2022-12-05T02:12:45.478Z,61.17
2022-12-05T02:14:51.296Z,35.23
2022-12-05T02:17:37.819Z,27.53
2022-12-05T02:19:45.468Z,24.67
2022-12-05T02:22:19.071Z,23.63
2022-12-05T02:24:50.358Z,20.70
2022-12-05T02:27:19.015Z,21.53
2022-12-05T02:29:58.767Z,15.47
2022-12-05T02:32:27.282Z,14.83
2022-12-05T02:34:52.840Z,11.73
2022-12-05T02:37:09.590Z,12.10
2022-12-05T02:39:33.986Z,13.00
2022-12-05T02:41:59.157Z,13.60
2022-12-05T02:44:17.689Z,14.67
2022-12-05T02:46:23.444Z,14.87
2022-12-05T02:48:29.463Z,16.50
2022-12-05T02:50:38.214Z,16.60
2022-12-05T02:52:45.192Z,16.90
2022-12-05T02:54:52.010Z,18.00
2022-12-05T02:56:57.409Z,18.20
2022-12-05T02:58:59.381Z,16.67
2022-12-05T03:01:03.818Z,15.27
2022-12-05T03:03:14.841Z,16.57
2022-12-05T03:05:39.219Z,79.63
2022-12-05T03:07:45.264Z,97.57
2022-12-05T03:09:54.465Z,47.77
2022-12-05T03:12:02.817Z,51.47
2022-12-05T03:14:08.194Z,42.27
2022-12-05T03:16:17.357Z,27.23
2022-12-05T03:18:41.194Z,22.67
2022-12-05T03:20:51.225Z,18.70
2022-12-05T03:23:03.435Z,22.73
2022-12-05T03:25:06.340Z,17.23
2022-12-05T03:27:14.295Z,14.87
2022-12-05T03:29:39.776Z,18.93
2022-12-05T03:31:50.762Z,16.63
2022-12-05T03:33:57.889Z,13.47
2022-12-05T03:36:17.560Z,13.47
2022-12-05T03:38:36.878Z,13.63
2022-12-05T03:40:50.286Z,12.70
2022-12-05T03:43:02.948Z,12.17
2022-12-05T03:45:12.846Z,12.47
2022-12-05T03:47:53.466Z,12.23
2022-12-05T03:50:06.375Z,12.10
2022-12-05T03:52:14.277Z,13.67
2022-12-05T03:54:26.596Z,12.63
2022-12-05T03:56:35.688Z,14.70
2022-12-05T03:58:48.647Z,15.07
2022-12-05T04:00:54.472Z,14.57
2022-12-05T04:03:11.973Z,12.17
2022-12-05T04:05:23.247Z,12.93
2022-12-05T04:07:27.475Z,12.90
2022-12-05T04:09:35.287Z,20.97
2022-12-05T04:11:43.973Z,25.83
2022-12-05T04:13:53.476Z,23.87
2022-12-05T04:16:23.369Z,22.37
2022-12-05T04:18:29.577Z,21.93
2022-12-05T04:20:56.330Z,25.73
2022-12-05T04:22:59.625Z,23.70
2022-12-05T04:25:22.982Z,21.97
2022-12-05T04:27:41.477Z,16.80
2022-12-05T04:30:13.248Z,15.90
2022-12-05T04:32:16.192Z,15.30
2022-12-05T04:34:22.032Z,13.83
2022-12-05T04:36:26.861Z,15.60
2022-12-05T04:38:36.687Z,15.40
2022-12-05T04:40:48.898Z,16.80
2022-12-05T04:42:53.845Z,17.83
2022-12-05T04:45:08.475Z,25.17
2022-12-05T04:47:15.152Z,23.47
2022-12-05T04:49:25.175Z,24.87
2022-12-05T04:51:30.745Z,21.17
2022-12-05T04:53:34.089Z,20.77
2022-12-05T04:55:39.980Z,18.67
2022-12-05T04:58:00.611Z,18.30
2022-12-05T05:00:03.559Z,17.57
2022-12-05T05:02:09.549Z,17.87
2022-12-05T05:04:29.572Z,18.93
2022-12-05T05:06:31.751Z,17.97
2022-12-05T05:08:34.563Z,19.97
2022-12-05T05:10:46.942Z,21.13
2022-12-05T05:12:48.720Z,28.30
2022-12-05T05:14:50.727Z,34.83
2022-12-05T05:16:56.004Z,32.33
2022-12-05T05:18:58.221Z,25.57
2022-12-05T05:21:00.422Z,27.23
2022-12-05T05:23:02.585Z,23.97
2022-12-05T05:25:05.313Z,22.73
2022-12-05T05:27:07.541Z,22.23
2022-12-05T05:29:10.527Z,20.00
2022-12-05T05:31:13.814Z,22.10
2022-12-05T05:33:16.375Z,19.63
2022-12-05T05:35:18.893Z,19.13
2022-12-05T05:37:20.976Z,20.10
2022-12-05T05:39:25.910Z,19.13
2022-12-05T05:41:38.078Z,20.70
2022-12-05T05:43:44.093Z,22.43
2022-12-05T05:45:46.156Z,24.00
2022-12-05T05:47:50.146Z,28.43
2022-12-05T05:49:52.536Z,32.07
2022-12-05T05:51:54.665Z,32.07
2022-12-05T05:53:58.157Z,33.40
2022-12-05T05:56:20.058Z,27.07
2022-12-05T05:58:26.282Z,24.57
2022-12-05T06:00:28.654Z,23.10
2022-12-05T06:02:35.856Z,23.33
2022-12-05T06:04:38.316Z,21.43
2022-12-05T06:06:41.009Z,21.97
2022-12-05T06:08:44.940Z,22.43
2022-12-05T06:10:46.850Z,25.07
2022-12-05T06:12:48.791Z,26.43
2022-12-05T06:14:51.316Z,26.47
2022-12-05T06:16:54.258Z,28.30
2022-12-05T06:18:56.540Z,29.60
2022-12-05T06:20:58.774Z,30.27
2022-12-05T06:23:00.819Z,38.90
2022-12-05T06:25:03.166Z,37.03
2022-12-05T06:27:05.433Z,32.20
2022-12-05T06:29:08.711Z,31.57
2022-12-05T06:31:14.384Z,35.27
2022-12-05T06:33:17.040Z,32.40
2022-12-05T06:35:19.022Z,33.97
2022-12-05T06:37:21.052Z,34.37
2022-12-05T06:39:23.668Z,33.67
2022-12-05T06:41:27.629Z,31.00
2022-12-05T06:43:29.944Z,30.67
2022-12-05T06:45:32.131Z,30.20
2022-12-05T06:47:34.575Z,34.33
2022-12-05T06:49:38.181Z,33.80
2022-12-05T06:51:40.334Z,34.00
2022-12-05T06:53:42.598Z,34.67
2022-12-05T06:55:45.533Z,34.87
2022-12-05T06:57:47.561Z,34.97
2022-12-05T07:00:12.499Z,32.93
2022-12-05T07:02:15.209Z,37.87
2022-12-05T07:04:24.701Z,38.97
2022-12-05T07:06:27.501Z,39.83
2022-12-05T07:08:30.079Z,40.87
2022-12-05T07:14:45.728Z,31.07
2022-12-05T07:16:44.307Z,28.17
2022-12-05T07:18:46.697Z,25.97
2022-12-05T07:21:13.658Z,29.00
2022-12-05T07:23:16.080Z,28.97
2022-12-05T07:25:20.324Z,29.73
2022-12-05T07:27:27.220Z,32.03
2022-12-05T07:29:32.587Z,32.87
2022-12-05T07:31:36.815Z,32.90
2022-12-05T07:33:39.190Z,33.23
2022-12-05T07:35:41.499Z,33.87
2022-12-05T07:37:43.655Z,36.30
2022-12-05T07:39:45.689Z,36.83
2022-12-05T07:41:47.809Z,36.40
2022-12-05T07:43:56.933Z,36.73
2022-12-05T07:46:06.869Z,41.40
2022-12-05T07:48:09.132Z,39.90
2022-12-05T07:50:11.558Z,42.47
2022-12-05T07:52:13.884Z,41.10
2022-12-05T07:54:16.214Z,38.67
2022-12-05T07:56:18.765Z,39.47
2022-12-05T07:58:20.801Z,33.10
2022-12-05T08:00:23.099Z,27.13
2022-12-05T08:02:28.283Z,22.37
2022-12-05T08:04:30.626Z,26.53
2022-12-05T08:06:34.661Z,25.37
2022-12-05T08:08:43.107Z,28.60
2022-12-05T08:10:45.462Z,30.50
2022-12-05T08:12:47.346Z,31.93
2022-12-05T08:14:52.425Z,32.17
2022-12-05T08:16:55.115Z,32.53
2022-12-05T08:19:06.267Z,34.17
2022-12-05T08:21:11.203Z,33.60
2022-12-05T08:23:13.185Z,37.37
2022-12-05T08:25:18.546Z,38.70
2022-12-05T08:27:21.093Z,37.73
2022-12-05T08:29:23.523Z,41.97
2022-12-05T08:31:30.519Z,45.47
2022-12-05T08:33:33.017Z,43.73
2022-12-05T08:35:37.943Z,43.70
2022-12-05T08:37:40.214Z,43.03
2022-12-05T08:39:42.353Z,42.37
2022-12-05T08:41:48.316Z,39.97
2022-12-05T08:43:50.939Z,37.43
2022-12-05T08:45:55.415Z,39.67
2022-12-05T08:47:57.767Z,43.43
2022-12-05T08:50:00.295Z,42.67
2022-12-05T08:52:05.810Z,41.07
2022-12-05T08:54:08.224Z,41.53
2022-12-05T08:56:11.461Z,40.13
2022-12-05T08:58:14.214Z,36.47
2022-12-05T09:00:17.298Z,33.97
2022-12-05T09:02:19.527Z,34.17
2022-12-05T09:04:22.049Z,33.20
2022-12-05T09:06:28.607Z,34.40
2022-12-05T09:08:31.617Z,32.93
2022-12-05T09:10:34.173Z,34.83
2022-12-05T09:12:39.209Z,34.37
2022-12-05T09:14:41.153Z,29.43
2022-12-05T09:16:45.548Z,27.50
2022-12-05T09:18:49.545Z,28.00
2022-12-05T09:20:54.416Z,29.13
2022-12-05T09:22:56.697Z,26.10
2022-12-05T09:25:00.009Z,27.10
2022-12-05T09:27:05.647Z,26.57
2022-12-05T09:29:14.150Z,25.80
2022-12-05T09:31:21.352Z,27.60
2022-12-05T09:33:23.724Z,27.10
2022-12-05T09:35:25.917Z,30.40
2022-12-05T09:41:41.515Z,29.73
2022-12-05T09:44:00.545Z,31.00
2022-12-05T09:46:20.336Z,30.57
2022-12-05T09:48:24.164Z,32.57
2022-12-05T09:50:37.053Z,36.10
2022-12-05T09:53:02.659Z,39.20
2022-12-05T09:55:20.297Z,42.40
2022-12-05T09:57:34.064Z,38.00
2022-12-05T09:59:36.428Z,38.93
2022-12-05T10:01:44.349Z,31.73
2022-12-05T10:03:55.054Z,32.33
2022-12-05T10:05:57.104Z,28.90
2022-12-05T10:08:25.263Z,29.60
2022-12-05T10:10:54.949Z,26.43
2022-12-05T10:13:15.447Z,28.77
2022-12-05T10:15:17.673Z,27.60
2022-12-05T10:17:26.855Z,29.43
2022-12-05T10:19:42.336Z,26.27
2022-12-05T10:21:50.088Z,24.47
2022-12-05T10:24:00.992Z,22.53
2022-12-05T10:26:07.833Z,17.60
2022-12-05T10:28:32.171Z,18.60
2022-12-05T10:30:38.085Z,19.23
2022-12-05T10:32:56.910Z,19.03
2022-12-05T10:35:22.276Z,22.30
2022-12-05T10:37:24.540Z,25.40
2022-12-05T10:39:28.091Z,25.37
2022-12-05T10:41:30.587Z,25.33
2022-12-05T10:43:35.131Z,23.23
2022-12-05T10:45:46.602Z,23.47
2022-12-05T10:47:50.463Z,20.40
2022-12-05T10:49:54.452Z,21.73
2022-12-05T10:51:56.933Z,20.50
2022-12-05T10:53:59.163Z,17.30
2022-12-05T10:56:29.853Z,17.47
2022-12-05T10:58:29.063Z,15.87
2022-12-05T11:00:31.103Z,15.07
2022-12-05T11:02:34.529Z,14.87
2022-12-05T11:04:47.899Z,18.07
2022-12-05T11:07:00.678Z,17.92
2022-12-05T11:09:17.334Z,19.57
2022-12-05T11:11:30.418Z,18.63
2022-12-05T11:13:34.233Z,18.30
2022-12-05T11:15:48.419Z,17.40
2022-12-05T11:17:55.276Z,17.60
2022-12-05T11:19:57.507Z,16.47
2022-12-05T11:22:01.102Z,17.73
2022-12-05T11:24:30.799Z,16.65
2022-12-05T11:26:37.606Z,15.57
2022-12-05T11:28:40.611Z,20.07
2022-12-05T11:30:57.674Z,21.73
2022-12-05T11:33:23.713Z,24.23
2022-12-05T11:35:26.764Z,27.67
2022-12-05T11:37:35.821Z,26.97
2022-12-05T11:39:40.586Z,23.50
2022-12-05T11:42:06.769Z,16.83
2022-12-05T11:44:39.484Z,11.97
2022-12-05T11:46:41.492Z,10.30
2022-12-05T11:48:46.849Z,9.67
2022-12-05T11:51:10.630Z,9.73
2022-12-05T11:53:12.508Z,9.93
2022-12-05T11:55:14.458Z,14.37
2022-12-05T11:57:52.484Z,17.73
2022-12-05T12:00:05.075Z,17.93
2022-12-05T12:02:37.850Z,16.00
2022-12-05T12:04:55.265Z,13.23
2022-12-05T12:07:19.998Z,14.37
2022-12-05T12:09:59.021Z,13.30
2022-12-05T12:12:22.951Z,14.23
2022-12-05T12:15:12.688Z,12.60
2022-12-05T12:17:39.328Z,13.43
2022-12-05T12:20:06.266Z,21.27
2022-12-05T12:22:57.612Z,26.25
2022-12-05T12:25:32.465Z,24.25
2022-12-05T12:27:45.192Z,16.90
2022-12-05T12:29:58.205Z,27.80
2022-12-05T12:32:14.922Z,40.43
2022-12-05T12:34:35.296Z,40.93
2022-12-05T12:36:54.740Z,29.93
2022-12-05T12:39:11.291Z,23.30
2022-12-05T12:41:50.617Z,17.10
2022-12-05T12:44:11.065Z,15.93
2022-12-05T12:46:28.496Z,15.67
2022-12-05T12:48:55.387Z,13.93
2022-12-05T12:51:02.181Z,14.20
2022-12-05T12:53:22.591Z,14.83
2022-12-05T12:55:45.305Z,14.27
2022-12-05T12:58:06.717Z,14.88
2022-12-05T13:00:24.212Z,13.20
2022-12-05T13:02:35.757Z,10.43
2022-12-05T13:04:58.588Z,10.70
2022-12-05T13:07:08.481Z,11.97
2022-12-05T13:09:39.391Z,12.02
2022-12-05T13:11:44.887Z,12.83
2022-12-05T13:13:51.974Z,13.70
2022-12-05T13:15:58.777Z,14.35
2022-12-05T13:18:03.486Z,13.90
2022-12-05T13:20:06.532Z,14.83
2022-12-05T13:22:09.498Z,15.97
2022-12-05T13:24:13.936Z,15.87
2022-12-05T13:26:17.911Z,18.25
2022-12-05T13:28:28.385Z,21.45
2022-12-05T13:30:31.479Z,39.30
2022-12-05T13:32:41.022Z,32.05
2022-12-05T13:34:48.281Z,29.20
2022-12-05T13:37:12.219Z,34.67
2022-12-05T13:39:32.790Z,32.83
2022-12-05T13:42:17.109Z,35.00
2022-12-05T13:44:31.307Z,29.35
2022-12-05T13:46:37.102Z,44.63
2022-12-05T13:48:42.962Z,45.50
2022-12-05T13:50:59.259Z,62.80
2022-12-05T13:53:06.099Z,103.57
2022-12-05T13:55:24.793Z,68.33
2022-12-05T13:57:47.848Z,54.30
2022-12-05T14:00:19.745Z,60.20
2022-12-05T14:02:43.616Z,45.07
2022-12-05T14:04:53.987Z,36.40
2022-12-05T14:06:59.053Z,25.38
2022-12-05T14:09:02.553Z,25.53
2022-12-05T14:11:05.902Z,27.10
2022-12-05T14:13:17.962Z,34.13
2022-12-05T14:15:35.059Z,32.07
2022-12-05T14:17:44.026Z,26.43
2022-12-05T14:20:25.170Z,18.37
2022-12-05T14:22:34.509Z,23.13
2022-12-05T14:24:43.502Z,29.53
2022-12-05T14:26:57.823Z,28.50
2022-12-05T14:29:25.528Z,23.57
2022-12-05T14:31:34.466Z,24.37
2022-12-05T14:33:36.840Z,27.97
2022-12-05T14:35:49.304Z,27.13
2022-12-05T14:38:07.011Z,19.00
2022-12-05T14:40:32.566Z,24.40
2022-12-05T14:42:53.047Z,25.30
2022-12-05T14:45:01.378Z,27.53
2022-12-05T14:47:09.544Z,25.23
2022-12-05T14:49:37.755Z,27.57
2022-12-05T14:51:41.112Z,24.70
2022-12-05T14:53:43.958Z,23.30
2022-12-05T14:55:48.707Z,23.67
2022-12-05T14:57:51.138Z,23.93
2022-12-05T14:59:59.722Z,22.73
2022-12-05T15:02:04.130Z,20.50
2022-12-05T15:04:12.589Z,19.90
2022-12-05T15:06:18.193Z,20.07
2022-12-05T15:08:20.957Z,39.80
2022-12-05T15:10:28.895Z,42.03
2022-12-05T15:12:41.254Z,59.67
2022-12-05T15:15:14.494Z,50.00
2022-12-05T15:17:23.270Z,41.07
2022-12-05T15:19:47.055Z,50.67
2022-12-05T15:21:57.311Z,44.90
2022-12-05T15:24:02.841Z,39.00
2022-12-05T15:29:01.968Z,81.53
2022-12-05T15:31:04.866Z,104.27
2022-12-05T15:33:13.065Z,79.53
2022-12-05T15:35:16.594Z,50.53
2022-12-05T15:37:50.911Z,36.47
2022-12-05T15:40:01.702Z,36.37
2022-12-05T15:42:10.380Z,33.30
2022-12-05T15:44:12.365Z,26.10
2022-12-05T15:46:27.769Z,40.40
2022-12-05T15:48:30.538Z,48.40
2022-12-05T15:50:35.419Z,80.17
2022-12-05T15:52:44.167Z,66.53
2022-12-05T15:54:47.227Z,78.00
2022-12-05T15:57:37.510Z,82.93
2022-12-05T15:59:51.244Z,93.60
2022-12-05T16:02:01.774Z,67.00
2022-12-05T16:04:13.007Z,57.40
2022-12-05T16:06:22.773Z,47.90
2022-12-05T16:08:30.178Z,33.03
2022-12-05T16:10:33.240Z,34.47
2022-12-05T16:12:40.884Z,33.33
2022-12-05T16:15:00.353Z,41.20
2022-12-05T16:17:06.605Z,47.27
2022-12-05T16:19:23.045Z,44.17
2022-12-05T16:21:38.616Z,33.67
2022-12-05T16:23:43.533Z,40.10
2022-12-05T16:25:45.750Z,49.50
2022-12-05T16:28:03.568Z,44.13
2022-12-05T16:30:12.948Z,62.07
2022-12-05T16:32:23.706Z,47.07
2022-12-05T16:34:27.890Z,37.43
2022-12-05T16:36:35.938Z,33.80
2022-12-05T16:38:41.066Z,32.83
2022-12-05T16:40:46.301Z,26.57
2022-12-05T16:43:01.895Z,26.07
2022-12-05T16:45:04.945Z,23.50
2022-12-05T16:47:23.234Z,22.10
2022-12-05T16:49:31.267Z,26.30
2022-12-05T16:51:42.502Z,25.97
2022-12-05T16:53:46.989Z,29.47
2022-12-05T16:55:50.158Z,34.27
2022-12-05T16:57:52.485Z,57.30
2022-12-05T16:59:54.940Z,39.13
2022-12-05T17:01:57.137Z,38.27
2022-12-05T17:03:59.996Z,80.87
2022-12-05T17:06:02.221Z,53.07
2022-12-05T17:08:04.454Z,45.53
2022-12-05T17:10:07.539Z,38.23
2022-12-05T17:12:19.050Z,36.67
2022-12-05T17:14:21.791Z,29.17
2022-12-05T17:16:24.197Z,32.70
2022-12-05T17:18:31.554Z,35.77
2022-12-05T17:20:35.078Z,33.27
2022-12-05T17:22:37.193Z,27.77
2022-12-05T17:24:39.522Z,27.45
2022-12-05T17:26:44.819Z,29.85
2022-12-05T17:28:47.996Z,24.43
2022-12-05T17:30:52.743Z,17.80
2022-12-05T17:32:55.278Z,17.77
2022-12-05T17:35:00.091Z,16.47
2022-12-05T17:37:04.567Z,14.40
2022-12-05T17:39:06.998Z,17.77
2022-12-05T17:41:16.433Z,20.70
2022-12-05T17:43:24.806Z,23.23
2022-12-05T17:45:27.473Z,20.50
2022-12-05T17:47:30.630Z,20.97
2022-12-05T17:49:32.698Z,20.73
2022-12-05T17:51:44.159Z,22.43
2022-12-05T17:53:58.545Z,18.00
2022-12-05T17:56:00.842Z,18.40
2022-12-05T17:58:03.125Z,16.43
2022-12-05T18:00:09.719Z,19.07
2022-12-05T18:02:12.177Z,19.40
2022-12-05T18:04:15.856Z,19.97
2022-12-05T18:06:20.896Z,20.13
2022-12-05T18:08:24.348Z,22.70
2022-12-05T18:10:26.565Z,21.50
2022-12-05T18:12:29.149Z,19.50
2022-12-05T18:14:32.057Z,21.93
2022-12-05T18:16:35.692Z,21.17
2022-12-05T18:18:40.058Z,18.70
2022-12-05T18:20:42.461Z,17.87
2022-12-05T18:22:44.646Z,19.37
2022-12-05T18:24:46.805Z,20.93
2022-12-05T18:26:49.156Z,21.90
2022-12-05T18:28:53.879Z,20.57
2022-12-05T18:31:17.472Z,18.93
2022-12-05T18:33:20.121Z,18.80
2022-12-05T18:35:40.791Z,17.40
2022-12-05T18:37:42.883Z,17.33
2022-12-05T18:39:45.464Z,15.00
2022-12-05T18:41:48.165Z,14.27
2022-12-05T18:43:50.797Z,15.10
2022-12-05T18:46:01.124Z,15.33
2022-12-05T18:50:28.752Z,11.80
2022-12-05T18:52:33.366Z,13.50
2022-12-05T18:54:35.526Z,13.03
2022-12-05T18:56:40.217Z,13.43
2022-12-05T18:58:42.404Z,12.27
2022-12-05T19:00:47.036Z,14.70
2022-12-05T19:02:49.629Z,15.17
2022-12-05T19:04:51.823Z,18.67
2022-12-05T19:06:58.894Z,20.87
2022-12-05T19:09:07.192Z,25.30
2022-12-05T19:11:09.440Z,29.30
2022-12-05T19:13:17.769Z,29.83
2022-12-05T19:15:20.108Z,31.30
2022-12-05T19:17:23.193Z,34.03
2022-12-05T19:19:28.177Z,29.77
2022-12-05T19:21:34.722Z,26.97
2022-12-05T19:23:36.730Z,22.87
2022-12-05T19:25:39.157Z,22.70
2022-12-05T19:27:41.243Z,22.33
2022-12-05T19:29:43.613Z,21.83
2022-12-05T19:31:46.264Z,21.70
2022-12-05T19:33:53.904Z,25.33
2022-12-05T19:35:56.158Z,23.80
2022-12-05T19:37:58.273Z,23.37
2022-12-05T19:40:01.025Z,24.63
2022-12-05T19:42:03.469Z,24.07
2022-12-05T19:44:06.045Z,25.13
2022-12-05T19:46:19.310Z,25.77
2022-12-05T19:48:21.896Z,31.97
2022-12-05T19:50:24.036Z,30.87
2022-12-05T19:52:26.082Z,32.23
2022-12-05T19:54:28.452Z,31.80
2022-12-05T19:56:32.708Z,30.40
2022-12-05T19:58:36.109Z,31.33
2022-12-05T20:00:38.411Z,26.93
2022-12-05T20:02:43.798Z,25.43
2022-12-05T20:04:50.931Z,23.93
2022-12-05T20:06:53.284Z,20.57
2022-12-05T20:08:55.605Z,21.93
2022-12-05T20:11:02.729Z,20.47
2022-12-05T20:13:12.889Z,19.57
2022-12-05T20:15:26.555Z,21.10
2022-12-05T20:17:28.621Z,21.40
2022-12-05T20:19:31.076Z,20.37
2022-12-05T20:21:34.515Z,19.67
2022-12-05T20:23:39.680Z,22.13
2022-12-05T20:25:41.722Z,20.30
2022-12-05T20:27:47.600Z,20.10
2022-12-05T20:29:50.263Z,18.33
2022-12-05T20:31:56.706Z,17.50
2022-12-05T20:33:59.310Z,19.23
2022-12-05T20:36:07.090Z,19.33
2022-12-05T20:38:09.201Z,20.53
2022-12-05T20:40:11.629Z,20.13
2022-12-05T20:42:16.936Z,20.60
2022-12-05T20:44:19.418Z,18.73
2022-12-05T20:46:22.754Z,17.13
2022-12-05T20:48:26.269Z,16.53
2022-12-05T20:50:28.389Z,15.20
2022-12-05T20:52:31.430Z,13.90
2022-12-05T20:54:34.006Z,12.93
2022-12-05T20:56:36.185Z,12.50
2022-12-05T20:58:40.315Z,11.87
2022-12-05T21:00:43.820Z,13.37
2022-12-05T21:02:46.061Z,14.30
2022-12-05T21:04:48.273Z,17.97
2022-12-05T21:06:50.965Z,15.33
2022-12-05T21:08:54.948Z,16.30
2022-12-05T21:10:57.146Z,15.63
2022-12-05T21:12:59.897Z,16.53
2022-12-05T21:15:02.335Z,16.63
2022-12-05T21:17:04.140Z,17.43
2022-12-05T21:19:06.604Z,18.40
2022-12-05T21:21:15.925Z,17.47
2022-12-05T21:23:18.008Z,19.60
2022-12-05T21:25:20.105Z,21.60
2022-12-05T21:27:22.414Z,20.73
2022-12-05T21:29:24.439Z,20.50
2022-12-05T21:31:29.847Z,20.33
2022-12-05T21:33:32.254Z,19.77
2022-12-05T21:35:34.509Z,18.23
2022-12-05T21:37:38.342Z,18.70
2022-12-05T21:39:40.714Z,16.47
2022-12-05T21:41:42.806Z,16.80
2022-12-05T21:43:49.616Z,16.90
2022-12-05T21:45:55.260Z,17.07
2022-12-05T21:47:57.235Z,16.47
2022-12-05T21:49:59.675Z,18.67
2022-12-05T21:52:01.960Z,17.00
2022-12-05T21:54:04.275Z,18.07
2022-12-05T21:56:18.675Z,16.10
2022-12-05T21:58:21.413Z,16.03
2022-12-05T22:00:23.685Z,15.77
2022-12-05T22:02:26.162Z,14.97
2022-12-05T22:04:28.260Z,13.50
2022-12-05T22:06:34.389Z,14.03
2022-12-05T22:08:37.869Z,14.50
2022-12-05T22:10:39.876Z,13.90
2022-12-05T22:12:42.115Z,13.53
2022-12-05T22:14:44.142Z,12.83
2022-12-05T22:16:46.298Z,12.97
2022-12-05T22:18:48.765Z,13.77
2022-12-05T22:20:58.310Z,13.13
2022-12-05T22:23:00.293Z,12.90
2022-12-05T22:25:04.365Z,13.07
2022-12-05T22:27:06.488Z,12.37
2022-12-05T22:29:08.694Z,12.37
2022-12-05T22:31:13.327Z,12.87
2022-12-05T22:33:15.816Z,12.07
2022-12-05T22:35:17.863Z,14.27
2022-12-05T22:37:22.649Z,13.40
2022-12-05T22:39:27.728Z,15.33
2022-12-05T22:41:29.762Z,15.53
2022-12-05T22:43:33.361Z,14.60
2022-12-05T22:45:36.177Z,15.27
2022-12-05T22:47:38.453Z,15.53
2022-12-05T22:49:40.515Z,15.87
2022-12-05T22:51:42.875Z,15.47
2022-12-05T22:53:45.123Z,15.43
2022-12-05T22:55:47.637Z,16.00
2022-12-05T22:57:50.302Z,15.20
2022-12-05T22:59:52.853Z,16.43
2022-12-05T23:01:55.073Z,15.63
2022-12-05T23:03:59.966Z,17.90
2022-12-05T23:06:11.469Z,18.27
2022-12-05T23:08:14.367Z,21.77
2022-12-05T23:10:19.549Z,23.47
2022-12-05T23:12:22.112Z,23.17
2022-12-05T23:14:24.267Z,24.90
2022-12-05T23:16:28.311Z,22.80
2022-12-05T23:18:30.646Z,20.70
2022-12-05T23:20:33.391Z,19.70
2022-12-05T23:22:37.808Z,19.00
2022-12-05T23:24:40.116Z,19.23
2022-12-05T23:26:45.084Z,18.53
2022-12-05T23:28:47.396Z,15.77
2022-12-05T23:30:50.076Z,14.07
2022-12-05T23:32:52.706Z,12.50
2022-12-05T23:34:54.902Z,10.03
2022-12-05T23:36:57.135Z,9.27
2022-12-05T23:39:01.222Z,8.87
2022-12-05T23:41:12.845Z,9.27
2022-12-05T23:43:15.178Z,8.87
2022-12-05T23:45:17.385Z,8.57
2022-12-05T23:47:19.661Z,8.47
2022-12-05T23:49:22.263Z,8.30
2022-12-05T23:51:28.595Z,9.63
2022-12-05T23:53:32.801Z,11.33
2022-12-05T23:55:35.219Z,13.50
2022-12-05T23:57:37.533Z,14.17
2022-12-05T23:59:39.754Z,12.50
